KMTJ/MTJ METAR and TAF weather

Enter ICAO airport designator
Station Type Date Time Source
KMTJ METAR 2019/08/25 19:53 UTC NOAA

KMTJ 251953Z AUTO 35009G16KT 10SM CLR 32/03 A3011 RMK AO2 SLP099 T03220028


Station Type Date Time Source
KMTJ Decoded METAR 2019/08/25 19:53 UTC NOAA

Station name not available
Aug 25, 2019 - 03:53 PM EDT / 2019.08.25 1953 UTC
Wind: from the N (350 degrees) at 10 MPH (9 KT) gusting to 18 MPH (16 KT):0
Visibility: 10 mile(s):0
Sky conditions: clear
Temperature: 90.0 F (32.2 C)
Dew Point: 37.0 F (2.8 C)
Relative Humidity: 15%
Pressure (altimeter): 30.11 in. Hg (1019 hPa)
ob: KMTJ 251953Z AUTO 35009G16KT 10SM CLR 32/03 A3011 RMK AO2 SLP099 T03220028
cycle: 20

Station Type Date Time Source
KMTJ TAF 2019/08/25 18:34 UTC NOAA

TAF KMTJ 251732Z 2518/2618 VRB05KT P6SM SKC
FM252000 28010G20KT P6SM FEW150 FEW250
FM260100 23008KT P6SM SKC
FM260300 15007KT P6SM SKC

Example: see airport list